sensor_id;sensor_type;location;lat;lon;timestamp;P1;durP1;ratioP1;P2;durP2;ratioP2
39782;SDS011;25462;51.164;17.100;2023-04-05T00:00:47;33.20;;;14.00;;
39782;SDS011;25462;51.164;17.100;2023-04-05T00:05:51;32.30;;;14.20;;
39782;SDS011;25462;51.164;17.100;2023-04-05T00:10:57;31.20;;;15.00;;
39782;SDS011;25462;51.164;17.100;2023-04-05T00:16:00;34.70;;;14.70;;
39782;SDS011;25462;51.164;17.100;2023-04-05T00:21:05;39.40;;;15.00;;
39782;SDS011;25462;51.164;17.100;2023-04-05T00:26:08;33.60;;;15.40;;
39782;SDS011;25462;51.164;17.100;2023-04-05T00:31:14;34.50;;;14.70;;
39782;SDS011;25462;51.164;17.100;2023-04-05T00:36:19;43.30;;;17.30;;
39782;SDS011;25462;51.164;17.100;2023-04-05T00:41:23;36.80;;;15.20;;
39782;SDS011;25462;51.164;17.100;2023-04-05T00:46:27;34.70;;;13.80;;
39782;SDS011;25462;51.164;17.100;2023-04-05T00:51:32;33.90;;;14.80;;
39782;SDS011;25462;51.164;17.100;2023-04-05T00:56:36;31.70;;;13.70;;
39782;SDS011;25462;51.164;17.100;2023-04-05T01:01:39;30.50;;;13.50;;
39782;SDS011;25462;51.164;17.100;2023-04-05T01:12:08;34.20;;;14.70;;
39782;SDS011;25462;51.164;17.100;2023-04-05T01:17:12;34.30;;;14.50;;
39782;SDS011;25462;51.164;17.100;2023-04-05T01:27:47;38.10;;;13.40;;
39782;SDS011;25462;51.164;17.100;2023-04-05T01:38:15;38.00;;;14.10;;
39782;SDS011;25462;51.164;17.100;2023-04-05T01:43:21;42.00;;;16.40;;
39782;SDS011;25462;51.164;17.100;2023-04-05T01:48:25;46.00;;;16.50;;
39782;SDS011;25462;51.164;17.100;2023-04-05T01:53:30;41.10;;;16.80;;
39782;SDS011;25462;51.164;17.100;2023-04-05T01:58:34;58.60;;;24.20;;
39782;SDS011;25462;51.164;17.100;2023-04-05T02:03:38;63.60;;;26.40;;
39782;SDS011;25462;51.164;17.100;2023-04-05T02:08:42;66.80;;;27.30;;
39782;SDS011;25462;51.164;17.100;2023-04-05T02:13:46;70.10;;;28.30;;
39782;SDS011;25462;51.164;17.100;2023-04-05T02:18:49;64.30;;;26.70;;
39782;SDS011;25462;51.164;17.100;2023-04-05T02:23:53;56.80;;;23.70;;
39782;SDS011;25462;51.164;17.100;2023-04-05T02:28:57;46.60;;;18.20;;
39782;SDS011;25462;51.164;17.100;2023-04-05T02:34:01;44.40;;;16.30;;
39782;SDS011;25462;51.164;17.100;2023-04-05T02:39:07;40.40;;;15.70;;
39782;SDS011;25462;51.164;17.100;2023-04-05T02:44:13;41.60;;;17.60;;
39782;SDS011;25462;51.164;17.100;2023-04-05T02:49:17;38.80;;;17.70;;
39782;SDS011;25462;51.164;17.100;2023-04-05T02:54:21;32.50;;;15.00;;
39782;SDS011;25462;51.164;17.100;2023-04-05T02:59:32;33.10;;;14.30;;
39782;SDS011;25462;51.164;17.100;2023-04-05T03:04:36;31.80;;;12.70;;
39782;SDS011;25462;51.164;17.100;2023-04-05T03:09:41;38.60;;;14.30;;
39782;SDS011;25462;51.164;17.100;2023-04-05T03:14:47;32.70;;;15.00;;
39782;SDS011;25462;51.164;17.100;2023-04-05T03:19:53;36.10;;;14.40;;
39782;SDS011;25462;51.164;17.100;2023-04-05T03:24:59;36.40;;;14.20;;
39782;SDS011;25462;51.164;17.100;2023-04-05T03:30:04;34.80;;;13.90;;
39782;SDS011;25462;51.164;17.100;2023-04-05T03:35:13;31.40;;;13.40;;
39782;SDS011;25462;51.164;17.100;2023-04-05T03:40:21;35.90;;;13.40;;
39782;SDS011;25462;51.164;17.100;2023-04-05T03:45:26;39.90;;;13.60;;
39782;SDS011;25462;51.164;17.100;2023-04-05T03:50:31;36.60;;;12.50;;
39782;SDS011;25462;51.164;17.100;2023-04-05T03:55:35;35.20;;;14.10;;
39782;SDS011;25462;51.164;17.100;2023-04-05T04:00:41;33.20;;;13.70;;
39782;SDS011;25462;51.164;17.100;2023-04-05T04:05:49;34.10;;;13.30;;
39782;SDS011;25462;51.164;17.100;2023-04-05T04:10:54;31.50;;;13.80;;
39782;SDS011;25462;51.164;17.100;2023-04-05T04:16:04;34.20;;;13.70;;
39782;SDS011;25462;51.164;17.100;2023-04-05T04:21:21;33.80;;;13.90;;
39782;SDS011;25462;51.164;17.100;2023-04-05T04:26:46;27.70;;;13.30;;
39782;SDS011;25462;51.164;17.100;2023-04-05T04:32:00;27.20;;;12.10;;
39782;SDS011;25462;51.164;17.100;2023-04-05T04:37:22;33.50;;;14.40;;
39782;SDS011;25462;51.164;17.100;2023-04-05T04:43:05;37.10;;;15.80;;
39782;SDS011;25462;51.164;17.100;2023-04-05T04:48:31;32.10;;;13.70;;
39782;SDS011;25462;51.164;17.100;2023-04-05T04:53:48;27.90;;;12.00;;
39782;SDS011;25462;51.164;17.100;2023-04-05T04:58:53;28.80;;;12.40;;
39782;SDS011;25462;51.164;17.100;2023-04-05T05:03:58;47.10;;;16.80;;
39782;SDS011;25462;51.164;17.100;2023-04-05T05:09:06;30.00;;;14.30;;
39782;SDS011;25462;51.164;17.100;2023-04-05T05:14:18;29.00;;;12.10;;
39782;SDS011;25462;51.164;17.100;2023-04-05T05:19:21;28.10;;;12.10;;
39782;SDS011;25462;51.164;17.100;2023-04-05T05:24:28;39.60;;;18.10;;
39782;SDS011;25462;51.164;17.100;2023-04-05T05:29:32;37.00;;;16.90;;
39782;SDS011;25462;51.164;17.100;2023-04-05T05:34:36;38.10;;;17.40;;
39782;SDS011;25462;51.164;17.100;2023-04-05T05:39:39;32.10;;;14.20;;
39782;SDS011;25462;51.164;17.100;2023-04-05T05:44:43;42.70;;;13.00;;
39782;SDS011;25462;51.164;17.100;2023-04-05T05:49:47;24.70;;;12.10;;
39782;SDS011;25462;51.164;17.100;2023-04-05T05:54:52;28.10;;;11.20;;
39782;SDS011;25462;51.164;17.100;2023-04-05T05:59:55;24.60;;;12.70;;
39782;SDS011;25462;51.164;17.100;2023-04-05T06:04:59;28.00;;;12.80;;
39782;SDS011;25462;51.164;17.100;2023-04-05T06:10:04;26.10;;;10.50;;
39782;SDS011;25462;51.164;17.100;2023-04-05T06:15:09;30.40;;;11.70;;
39782;SDS011;25462;51.164;17.100;2023-04-05T06:20:13;28.20;;;12.30;;
39782;SDS011;25462;51.164;17.100;2023-04-05T06:25:17;23.50;;;9.60;;
39782;SDS011;25462;51.164;17.100;2023-04-05T06:30:21;27.00;;;11.10;;
39782;SDS011;25462;51.164;17.100;2023-04-05T06:35:25;24.70;;;11.30;;
39782;SDS011;25462;51.164;17.100;2023-04-05T06:40:29;20.70;;;8.70;;
39782;SDS011;25462;51.164;17.100;2023-04-05T06:45:32;24.70;;;10.70;;
39782;SDS011;25462;51.164;17.100;2023-04-05T06:50:36;22.30;;;10.40;;
39782;SDS011;25462;51.164;17.100;2023-04-05T06:55:40;21.00;;;10.80;;
39782;SDS011;25462;51.164;17.100;2023-04-05T07:00:45;21.40;;;10.80;;
39782;SDS011;25462;51.164;17.100;2023-04-05T07:05:53;23.50;;;10.70;;
39782;SDS011;25462;51.164;17.100;2023-04-05T07:10:59;32.70;;;12.20;;
39782;SDS011;25462;51.164;17.100;2023-04-05T07:16:03;26.00;;;11.00;;
39782;SDS011;25462;51.164;17.100;2023-04-05T07:21:07;29.50;;;12.90;;
39782;SDS011;25462;51.164;17.100;2023-04-05T07:26:12;27.10;;;12.80;;
39782;SDS011;25462;51.164;17.100;2023-04-05T07:31:17;27.50;;;11.40;;
39782;SDS011;25462;51.164;17.100;2023-04-05T07:36:20;26.10;;;10.70;;
39782;SDS011;25462;51.164;17.100;2023-04-05T07:41:24;26.10;;;12.30;;
39782;SDS011;25462;51.164;17.100;2023-04-05T07:46:30;29.10;;;12.60;;
39782;SDS011;25462;51.164;17.100;2023-04-05T07:51:33;25.40;;;12.20;;
39782;SDS011;25462;51.164;17.100;2023-04-05T07:56:39;25.60;;;11.50;;
39782;SDS011;25462;51.164;17.100;2023-04-05T08:01:43;23.70;;;10.50;;
39782;SDS011;25462;51.164;17.100;2023-04-05T08:06:47;24.10;;;10.90;;
39782;SDS011;25462;51.164;17.100;2023-04-05T08:11:51;23.70;;;10.90;;
39782;SDS011;25462;51.164;17.100;2023-04-05T08:16:55;25.10;;;10.80;;
39782;SDS011;25462;51.164;17.100;2023-04-05T08:21:58;62.80;;;11.90;;
39782;SDS011;25462;51.164;17.100;2023-04-05T08:27:02;21.10;;;10.10;;
39782;SDS011;25462;51.164;17.100;2023-04-05T08:32:06;17.20;;;7.60;;
39782;SDS011;25462;51.164;17.100;2023-04-05T08:37:11;8.50;;;4.00;;
39782;SDS011;25462;51.164;17.100;2023-04-05T08:42:22;10.30;;;3.80;;
39782;SDS011;25462;51.164;17.100;2023-04-05T08:47:31;7.80;;;4.10;;
39782;SDS011;25462;51.164;17.100;2023-04-05T08:52:45;9.10;;;3.40;;
39782;SDS011;25462;51.164;17.100;2023-04-05T08:57:52;9.20;;;4.60;;
39782;SDS011;25462;51.164;17.100;2023-04-05T09:02:59;7.80;;;3.20;;
39782;SDS011;25462;51.164;17.100;2023-04-05T09:08:05;8.90;;;3.70;;
39782;SDS011;25462;51.164;17.100;2023-04-05T09:13:09;6.70;;;2.90;;
39782;SDS011;25462;51.164;17.100;2023-04-05T09:18:13;6.90;;;2.70;;
39782;SDS011;25462;51.164;17.100;2023-04-05T09:23:30;8.40;;;3.00;;
39782;SDS011;25462;51.164;17.100;2023-04-05T09:28:40;8.10;;;2.70;;
39782;SDS011;25462;51.164;17.100;2023-04-05T09:33:45;7.80;;;2.70;;
39782;SDS011;25462;51.164;17.100;2023-04-05T09:38:49;5.30;;;2.40;;
39782;SDS011;25462;51.164;17.100;2023-04-05T09:43:53;6.00;;;2.20;;
39782;SDS011;25462;51.164;17.100;2023-04-05T09:48:56;8.00;;;2.80;;
39782;SDS011;25462;51.164;17.100;2023-04-05T09:54:04;6.50;;;2.40;;
39782;SDS011;25462;51.164;17.100;2023-04-05T09:59:10;6.70;;;2.70;;
39782;SDS011;25462;51.164;17.100;2023-04-05T10:04:18;9.20;;;3.90;;
39782;SDS011;25462;51.164;17.100;2023-04-05T10:09:24;5.30;;;3.00;;
39782;SDS011;25462;51.164;17.100;2023-04-05T10:14:28;13.70;;;4.30;;
39782;SDS011;25462;51.164;17.100;2023-04-05T10:19:44;9.60;;;3.80;;
39782;SDS011;25462;51.164;17.100;2023-04-05T10:25:07;9.10;;;3.90;;
39782;SDS011;25462;51.164;17.100;2023-04-05T10:30:16;8.90;;;3.90;;
39782;SDS011;25462;51.164;17.100;2023-04-05T10:35:23;7.70;;;3.60;;
39782;SDS011;25462;51.164;17.100;2023-04-05T10:40:48;8.20;;;3.60;;
39782;SDS011;25462;51.164;17.100;2023-04-05T10:45:53;7.20;;;3.10;;
39782;SDS011;25462;51.164;17.100;2023-04-05T10:50:58;12.40;;;3.40;;
39782;SDS011;25462;51.164;17.100;2023-04-05T10:56:02;7.50;;;3.30;;
39782;SDS011;25462;51.164;17.100;2023-04-05T11:01:07;7.30;;;3.10;;
39782;SDS011;25462;51.164;17.100;2023-04-05T11:11:26;7.60;;;3.50;;
39782;SDS011;25462;51.164;17.100;2023-04-05T11:16:39;9.60;;;3.60;;
39782;SDS011;25462;51.164;17.100;2023-04-05T11:21:43;7.50;;;3.70;;
39782;SDS011;25462;51.164;17.100;2023-04-05T11:31:57;7.80;;;3.70;;
39782;SDS011;25462;51.164;17.100;2023-04-05T11:37:02;6.90;;;3.50;;
39782;SDS011;25462;51.164;17.100;2023-04-05T11:42:10;7.90;;;3.40;;
39782;SDS011;25462;51.164;17.100;2023-04-05T11:47:18;6.90;;;3.70;;
39782;SDS011;25462;51.164;17.100;2023-04-05T11:52:25;8.10;;;3.30;;
39782;SDS011;25462;51.164;17.100;2023-04-05T11:57:29;6.50;;;3.50;;
39782;SDS011;25462;51.164;17.100;2023-04-05T12:02:33;6.70;;;3.20;;
39782;SDS011;25462;51.164;17.100;2023-04-05T12:07:37;4.90;;;2.70;;
39782;SDS011;25462;51.164;17.100;2023-04-05T12:12:42;3.80;;;1.90;;
39782;SDS011;25462;51.164;17.100;2023-04-05T12:17:47;7.60;;;2.40;;
39782;SDS011;25462;51.164;17.100;2023-04-05T12:22:53;5.00;;;2.70;;
39782;SDS011;25462;51.164;17.100;2023-04-05T12:28:05;5.80;;;2.40;;
39782;SDS011;25462;51.164;17.100;2023-04-05T12:33:13;4.70;;;2.40;;
39782;SDS011;25462;51.164;17.100;2023-04-05T12:38:16;7.00;;;2.50;;
39782;SDS011;25462;51.164;17.100;2023-04-05T12:43:20;6.00;;;2.90;;
39782;SDS011;25462;51.164;17.100;2023-04-05T12:48:25;7.00;;;2.90;;
39782;SDS011;25462;51.164;17.100;2023-04-05T12:53:29;8.30;;;3.50;;
39782;SDS011;25462;51.164;17.100;2023-04-05T12:58:36;6.10;;;3.20;;
39782;SDS011;25462;51.164;17.100;2023-04-05T13:03:44;8.40;;;3.80;;
39782;SDS011;25462;51.164;17.100;2023-04-05T13:08:51;8.70;;;3.90;;
39782;SDS011;25462;51.164;17.100;2023-04-05T13:13:56;9.90;;;4.70;;
39782;SDS011;25462;51.164;17.100;2023-04-05T13:19:00;6.80;;;2.90;;
39782;SDS011;25462;51.164;17.100;2023-04-05T13:24:04;8.30;;;2.90;;
39782;SDS011;25462;51.164;17.100;2023-04-05T13:29:08;7.00;;;2.00;;
39782;SDS011;25462;51.164;17.100;2023-04-05T13:34:12;5.60;;;2.30;;
39782;SDS011;25462;51.164;17.100;2023-04-05T13:39:16;4.60;;;2.20;;
39782;SDS011;25462;51.164;17.100;2023-04-05T13:44:19;9.70;;;3.50;;
39782;SDS011;25462;51.164;17.100;2023-04-05T13:49:23;6.10;;;2.90;;
39782;SDS011;25462;51.164;17.100;2023-04-05T13:54:29;5.60;;;2.70;;
39782;SDS011;25462;51.164;17.100;2023-04-05T13:59:35;7.40;;;2.90;;
39782;SDS011;25462;51.164;17.100;2023-04-05T14:04:42;6.70;;;3.20;;
39782;SDS011;25462;51.164;17.100;2023-04-05T14:09:45;5.00;;;2.50;;
39782;SDS011;25462;51.164;17.100;2023-04-05T14:14:50;5.80;;;2.70;;
39782;SDS011;25462;51.164;17.100;2023-04-05T14:19:53;7.30;;;2.70;;
39782;SDS011;25462;51.164;17.100;2023-04-05T14:24:57;14.60;;;6.70;;
39782;SDS011;25462;51.164;17.100;2023-04-05T14:30:01;5.10;;;2.40;;
39782;SDS011;25462;51.164;17.100;2023-04-05T14:35:05;6.60;;;3.10;;
39782;SDS011;25462;51.164;17.100;2023-04-05T14:40:10;7.80;;;3.30;;
39782;SDS011;25462;51.164;17.100;2023-04-05T14:45:14;5.10;;;2.40;;
39782;SDS011;25462;51.164;17.100;2023-04-05T14:50:17;6.50;;;2.90;;
39782;SDS011;25462;51.164;17.100;2023-04-05T14:55:21;10.80;;;4.00;;
39782;SDS011;25462;51.164;17.100;2023-04-05T15:00:25;6.20;;;2.80;;
39782;SDS011;25462;51.164;17.100;2023-04-05T15:05:29;5.70;;;2.50;;
39782;SDS011;25462;51.164;17.100;2023-04-05T15:10:33;4.50;;;2.50;;
39782;SDS011;25462;51.164;17.100;2023-04-05T15:15:37;5.90;;;2.60;;
39782;SDS011;25462;51.164;17.100;2023-04-05T15:20:44;8.70;;;3.40;;
39782;SDS011;25462;51.164;17.100;2023-04-05T15:25:47;7.70;;;2.70;;
39782;SDS011;25462;51.164;17.100;2023-04-05T15:30:52;9.20;;;3.90;;
39782;SDS011;25462;51.164;17.100;2023-04-05T15:35:55;9.30;;;3.00;;
39782;SDS011;25462;51.164;17.100;2023-04-05T15:40:59;7.50;;;2.90;;
39782;SDS011;25462;51.164;17.100;2023-04-05T15:46:03;7.90;;;3.40;;
39782;SDS011;25462;51.164;17.100;2023-04-05T15:51:07;6.60;;;3.30;;
39782;SDS011;25462;51.164;17.100;2023-04-05T15:56:11;11.10;;;4.00;;
39782;SDS011;25462;51.164;17.100;2023-04-05T16:01:15;6.30;;;3.00;;
39782;SDS011;25462;51.164;17.100;2023-04-05T16:06:19;6.70;;;3.00;;
39782;SDS011;25462;51.164;17.100;2023-04-05T16:11:27;10.10;;;2.80;;
39782;SDS011;25462;51.164;17.100;2023-04-05T16:16:31;9.60;;;3.30;;
39782;SDS011;25462;51.164;17.100;2023-04-05T16:21:47;8.60;;;3.40;;
39782;SDS011;25462;51.164;17.100;2023-04-05T16:26:51;6.60;;;2.90;;
39782;SDS011;25462;51.164;17.100;2023-04-05T16:31:55;6.20;;;2.50;;
39782;SDS011;25462;51.164;17.100;2023-04-05T16:37:00;10.80;;;3.90;;
39782;SDS011;25462;51.164;17.100;2023-04-05T16:42:04;9.30;;;3.70;;
39782;SDS011;25462;51.164;17.100;2023-04-05T16:47:09;8.20;;;3.40;;
39782;SDS011;25462;51.164;17.100;2023-04-05T16:52:14;10.00;;;3.50;;
39782;SDS011;25462;51.164;17.100;2023-04-05T16:57:18;9.20;;;3.20;;
39782;SDS011;25462;51.164;17.100;2023-04-05T17:02:23;7.00;;;3.30;;
39782;SDS011;25462;51.164;17.100;2023-04-05T17:07:30;13.20;;;3.20;;
39782;SDS011;25462;51.164;17.100;2023-04-05T17:12:34;6.20;;;2.90;;
39782;SDS011;25462;51.164;17.100;2023-04-05T17:17:39;11.00;;;3.40;;
39782;SDS011;25462;51.164;17.100;2023-04-05T17:22:43;6.80;;;3.00;;
39782;SDS011;25462;51.164;17.100;2023-04-05T17:27:47;7.10;;;2.90;;
39782;SDS011;25462;51.164;17.100;2023-04-05T17:32:51;9.50;;;4.00;;
39782;SDS011;25462;51.164;17.100;2023-04-05T17:37:55;38.50;;;12.60;;
39782;SDS011;25462;51.164;17.100;2023-04-05T17:42:59;12.00;;;4.80;;
39782;SDS011;25462;51.164;17.100;2023-04-05T17:48:06;16.20;;;5.70;;
39782;SDS011;25462;51.164;17.100;2023-04-05T17:53:14;9.70;;;4.90;;
39782;SDS011;25462;51.164;17.100;2023-04-05T17:58:20;23.90;;;9.40;;
39782;SDS011;25462;51.164;17.100;2023-04-05T18:03:24;36.00;;;15.70;;
39782;SDS011;25462;51.164;17.100;2023-04-05T18:08:30;31.60;;;13.60;;
39782;SDS011;25462;51.164;17.100;2023-04-05T18:13:34;34.00;;;13.60;;
39782;SDS011;25462;51.164;17.100;2023-04-05T18:18:40;24.30;;;11.30;;
39782;SDS011;25462;51.164;17.100;2023-04-05T18:23:44;25.10;;;11.60;;
39782;SDS011;25462;51.164;17.100;2023-04-05T18:28:49;28.60;;;12.20;;
39782;SDS011;25462;51.164;17.100;2023-04-05T18:33:57;28.20;;;12.90;;
39782;SDS011;25462;51.164;17.100;2023-04-05T18:39:04;26.80;;;12.70;;
39782;SDS011;25462;51.164;17.100;2023-04-05T18:44:08;30.80;;;14.30;;
39782;SDS011;25462;51.164;17.100;2023-04-05T18:49:13;30.70;;;15.50;;
39782;SDS011;25462;51.164;17.100;2023-04-05T18:54:21;31.70;;;15.00;;
39782;SDS011;25462;51.164;17.100;2023-04-05T18:59:25;39.50;;;17.80;;
39782;SDS011;25462;51.164;17.100;2023-04-05T19:04:32;39.60;;;17.00;;
39782;SDS011;25462;51.164;17.100;2023-04-05T19:09:36;36.70;;;16.10;;
39782;SDS011;25462;51.164;17.100;2023-04-05T19:14:43;37.20;;;17.20;;
39782;SDS011;25462;51.164;17.100;2023-04-05T19:19:47;38.50;;;19.60;;
39782;SDS011;25462;51.164;17.100;2023-04-05T19:24:52;37.30;;;19.20;;
39782;SDS011;25462;51.164;17.100;2023-04-05T19:29:58;43.40;;;22.10;;
39782;SDS011;25462;51.164;17.100;2023-04-05T19:35:06;47.10;;;22.50;;
39782;SDS011;25462;51.164;17.100;2023-04-05T19:40:14;43.30;;;22.00;;
39782;SDS011;25462;51.164;17.100;2023-04-05T19:45:23;42.90;;;21.10;;
39782;SDS011;25462;51.164;17.100;2023-04-05T19:55:42;51.50;;;25.80;;
39782;SDS011;25462;51.164;17.100;2023-04-05T20:00:48;51.70;;;22.30;;
39782;SDS011;25462;51.164;17.100;2023-04-05T20:06:13;63.80;;;26.80;;
39782;SDS011;25462;51.164;17.100;2023-04-05T20:11:20;64.70;;;30.30;;
39782;SDS011;25462;51.164;17.100;2023-04-05T20:16:27;60.30;;;28.30;;
39782;SDS011;25462;51.164;17.100;2023-04-05T20:21:35;59.40;;;30.70;;
39782;SDS011;25462;51.164;17.100;2023-04-05T20:26:40;45.40;;;25.60;;
39782;SDS011;25462;51.164;17.100;2023-04-05T20:31:45;54.40;;;27.40;;
39782;SDS011;25462;51.164;17.100;2023-04-05T20:36:50;59.60;;;28.90;;
39782;SDS011;25462;51.164;17.100;2023-04-05T20:42:04;51.30;;;24.80;;
39782;SDS011;25462;51.164;17.100;2023-04-05T20:47:10;43.70;;;21.90;;
39782;SDS011;25462;51.164;17.100;2023-04-05T20:52:19;45.20;;;22.90;;
39782;SDS011;25462;51.164;17.100;2023-04-05T20:57:29;53.80;;;22.40;;
39782;SDS011;25462;51.164;17.100;2023-04-05T21:02:35;61.10;;;28.10;;
39782;SDS011;25462;51.164;17.100;2023-04-05T21:07:41;49.20;;;23.90;;
39782;SDS011;25462;51.164;17.100;2023-04-05T21:12:46;52.20;;;24.90;;
39782;SDS011;25462;51.164;17.100;2023-04-05T21:17:53;50.10;;;24.00;;
39782;SDS011;25462;51.164;17.100;2023-04-05T21:23:03;48.40;;;25.20;;
39782;SDS011;25462;51.164;17.100;2023-04-05T21:28:08;51.20;;;24.90;;
39782;SDS011;25462;51.164;17.100;2023-04-05T21:33:14;53.90;;;24.60;;
39782;SDS011;25462;51.164;17.100;2023-04-05T21:38:21;55.50;;;26.00;;
39782;SDS011;25462;51.164;17.100;2023-04-05T21:43:25;49.00;;;23.70;;
39782;SDS011;25462;51.164;17.100;2023-04-05T21:48:31;91.70;;;39.60;;
39782;SDS011;25462;51.164;17.100;2023-04-05T21:53:37;89.10;;;42.00;;
39782;SDS011;25462;51.164;17.100;2023-04-05T21:58:41;82.40;;;37.40;;
39782;SDS011;25462;51.164;17.100;2023-04-05T22:03:46;64.70;;;31.20;;
39782;SDS011;25462;51.164;17.100;2023-04-05T22:08:50;62.80;;;31.20;;
39782;SDS011;25462;51.164;17.100;2023-04-05T22:13:56;61.20;;;31.60;;
39782;SDS011;25462;51.164;17.100;2023-04-05T22:19:00;69.80;;;33.60;;
39782;SDS011;25462;51.164;17.100;2023-04-05T22:24:04;67.50;;;34.30;;
39782;SDS011;25462;51.164;17.100;2023-04-05T22:29:09;72.40;;;34.90;;
39782;SDS011;25462;51.164;17.100;2023-04-05T22:34:13;72.70;;;37.40;;
39782;SDS011;25462;51.164;17.100;2023-04-05T22:39:18;79.00;;;37.70;;
39782;SDS011;25462;51.164;17.100;2023-04-05T22:44:23;93.40;;;45.00;;
39782;SDS011;25462;51.164;17.100;2023-04-05T22:49:27;92.20;;;44.40;;
39782;SDS011;25462;51.164;17.100;2023-04-05T22:54:31;209.10;;;83.50;;
39782;SDS011;25462;51.164;17.100;2023-04-05T22:59:35;122.10;;;53.90;;
39782;SDS011;25462;51.164;17.100;2023-04-05T23:04:40;111.40;;;50.90;;
39782;SDS011;25462;51.164;17.100;2023-04-05T23:09:45;106.30;;;49.20;;
39782;SDS011;25462;51.164;17.100;2023-04-05T23:14:50;99.20;;;46.60;;
39782;SDS011;25462;51.164;17.100;2023-04-05T23:19:55;94.70;;;46.80;;
39782;SDS011;25462;51.164;17.100;2023-04-05T23:24:59;95.60;;;45.50;;
39782;SDS011;25462;51.164;17.100;2023-04-05T23:30:04;96.30;;;44.70;;
39782;SDS011;25462;51.164;17.100;2023-04-05T23:35:09;102.40;;;46.90;;
39782;SDS011;25462;51.164;17.100;2023-04-05T23:40:13;107.10;;;47.30;;
39782;SDS011;25462;51.164;17.100;2023-04-05T23:45:17;108.50;;;51.80;;
39782;SDS011;25462;51.164;17.100;2023-04-05T23:50:21;88.30;;;44.50;;
39782;SDS011;25462;51.164;17.100;2023-04-05T23:55:25;97.50;;;46.80;;
